sensor_id;sensor_type;location;lat;lon;timestamp;pressure;altitude;pressure_sealevel;temperature;humidity
61119;BME280;51448;51.660;5.824;2023-04-20T00:00:41;102184.31;;;6.50;47.83
61119;BME280;51448;51.660;5.824;2023-04-20T00:03:09;102177.38;;;6.50;46.94
61119;BME280;51448;51.660;5.824;2023-04-20T00:05:39;102173.88;;;6.48;47.19
61119;BME280;51448;51.660;5.824;2023-04-20T00:08:07;102172.09;;;6.47;47.66
61119;BME280;51448;51.660;5.824;2023-04-20T00:10:34;102164.22;;;6.45;47.47
61119;BME280;51448;51.660;5.824;2023-04-20T00:13:02;102156.41;;;6.44;47.35
61119;BME280;51448;51.660;5.824;2023-04-20T00:15:29;102154.66;;;6.44;47.43
61119;BME280;51448;51.660;5.824;2023-04-20T00:17:57;102145.03;;;6.43;47.65
61119;BME280;51448;51.660;5.824;2023-04-20T00:20:24;102144.19;;;6.44;47.76
61119;BME280;51448;51.660;5.824;2023-04-20T00:22:52;102138.09;;;6.42;47.58
61119;BME280;51448;51.660;5.824;2023-04-20T00:25:19;102131.09;;;6.41;47.66
61119;BME280;51448;51.660;5.824;2023-04-20T00:27:47;102124.13;;;6.40;47.93
61119;BME280;51448;51.660;5.824;2023-04-20T00:30:14;102123.28;;;6.43;47.39
61119;BME280;51448;51.660;5.824;2023-04-20T00:32:42;102112.78;;;6.41;48.15
61119;BME280;51448;51.660;5.824;2023-04-20T00:35:10;102111.94;;;6.42;47.63
61119;BME280;51448;51.660;5.824;2023-04-20T00:37:37;102106.72;;;6.45;47.60
61119;BME280;51448;51.660;5.824;2023-04-20T00:40:05;102111.97;;;6.45;47.87
61119;BME280;51448;51.660;5.824;2023-04-20T00:42:33;102102.41;;;6.46;47.86
61119;BME280;51448;51.660;5.824;2023-04-20T00:45:02;102100.69;;;6.48;47.99
61119;BME280;51448;51.660;5.824;2023-04-20T00:47:29;102093.72;;;6.50;48.02
61119;BME280;51448;51.660;5.824;2023-04-20T00:49:57;102091.97;;;6.51;47.94
61119;BME280;51448;51.660;5.824;2023-04-20T00:52:25;102096.31;;;6.49;48.07
61119;BME280;51448;51.660;5.824;2023-04-20T00:54:53;102091.06;;;6.45;47.72
61119;BME280;51448;51.660;5.824;2023-04-20T00:57:21;102088.41;;;6.41;48.29
61119;BME280;51448;51.660;5.824;2023-04-20T00:59:50;102085.75;;;6.36;48.36
61119;BME280;51448;51.660;5.824;2023-04-20T01:02:17;102076.13;;;6.32;48.67
61119;BME280;51448;51.660;5.824;2023-04-20T01:04:46;102067.38;;;6.29;48.52
61119;BME280;51448;51.660;5.824;2023-04-20T01:07:13;102054.28;;;6.24;48.67
61119;BME280;51448;51.660;5.824;2023-04-20T01:09:41;102052.50;;;6.20;48.89
61119;BME280;51448;51.660;5.824;2023-04-20T01:12:09;102053.38;;;6.17;49.04
61119;BME280;51448;51.660;5.824;2023-04-20T01:14:37;102054.19;;;6.15;49.22
61119;BME280;51448;51.660;5.824;2023-04-20T01:17:05;102048.97;;;6.15;49.82
61119;BME280;51448;51.660;5.824;2023-04-20T01:19:33;102043.75;;;6.13;49.42
61119;BME280;51448;51.660;5.824;2023-04-20T01:22:01;102037.63;;;6.11;49.70
61119;BME280;51448;51.660;5.824;2023-04-20T01:24:29;102028.00;;;6.09;50.36
61119;BME280;51448;51.660;5.824;2023-04-20T01:26:58;102024.50;;;6.07;50.26
61119;BME280;51448;51.660;5.824;2023-04-20T01:29:27;102022.72;;;6.02;50.37
61119;BME280;51448;51.660;5.824;2023-04-20T01:31:56;102016.63;;;5.99;50.81
61119;BME280;51448;51.660;5.824;2023-04-20T01:34:24;102017.47;;;5.98;51.38
61119;BME280;51448;51.660;5.824;2023-04-20T01:36:53;102010.41;;;5.94;51.18
61119;BME280;51448;51.660;5.824;2023-04-20T01:39:21;102001.72;;;5.93;50.90
61119;BME280;51448;51.660;5.824;2023-04-20T01:41:48;101995.63;;;5.93;51.62
61119;BME280;51448;51.660;5.824;2023-04-20T01:44:17;101993.00;;;5.91;51.34
61119;BME280;51448;51.660;5.824;2023-04-20T01:46:44;101987.78;;;5.91;51.19
61119;BME280;51448;51.660;5.824;2023-04-20T01:49:12;101986.00;;;5.90;51.63
61119;BME280;51448;51.660;5.824;2023-04-20T01:51:40;101984.28;;;5.89;51.42
61119;BME280;51448;51.660;5.824;2023-04-20T01:54:08;101978.19;;;5.89;51.00
61119;BME280;51448;51.660;5.824;2023-04-20T01:56:35;101976.41;;;5.88;51.69
61119;BME280;51448;51.660;5.824;2023-04-20T01:59:03;101975.50;;;5.84;51.62
61119;BME280;51448;51.660;5.824;2023-04-20T02:01:33;101979.84;;;5.83;52.25
61119;BME280;51448;51.660;5.824;2023-04-20T02:04:00;101979.84;;;5.83;52.40
61119;BME280;51448;51.660;5.824;2023-04-20T02:06:28;101972.00;;;5.80;52.49
61119;BME280;51448;51.660;5.824;2023-04-20T02:08:56;101968.50;;;5.77;52.47
61119;BME280;51448;51.660;5.824;2023-04-20T02:11:23;101964.97;;;5.75;52.69
61119;BME280;51448;51.660;5.824;2023-04-20T02:13:52;101971.94;;;5.73;53.07
61119;BME280;51448;51.660;5.824;2023-04-20T02:16:21;101970.16;;;5.72;53.95
61119;BME280;51448;51.660;5.824;2023-04-20T02:18:50;101970.16;;;5.69;54.34
61119;BME280;51448;51.660;5.824;2023-04-20T02:21:18;101964.00;;;5.65;54.13
61119;BME280;51448;51.660;5.824;2023-04-20T02:23:45;101969.22;;;5.65;54.14
61119;BME280;51448;51.660;5.824;2023-04-20T02:26:13;101965.75;;;5.64;54.19
61119;BME280;51448;51.660;5.824;2023-04-20T02:28:44;101957.09;;;5.69;55.37
61119;BME280;51448;51.660;5.824;2023-04-20T02:31:12;101953.66;;;5.73;55.83
61119;BME280;51448;51.660;5.824;2023-04-20T02:33:44;101959.78;;;5.78;56.09
61119;BME280;51448;51.660;5.824;2023-04-20T02:36:14;101966.81;;;5.85;56.74
61119;BME280;51448;51.660;5.824;2023-04-20T02:38:42;101957.28;;;5.90;57.48
61119;BME280;51448;51.660;5.824;2023-04-20T02:41:09;101947.81;;;5.98;57.39
61119;BME280;51448;51.660;5.824;2023-04-20T02:43:37;101948.72;;;6.02;57.45
61119;BME280;51448;51.660;5.824;2023-04-20T02:46:05;101947.88;;;6.04;57.73
61119;BME280;51448;51.660;5.824;2023-04-20T02:48:34;101940.09;;;6.09;58.32
61119;BME280;51448;51.660;5.824;2023-04-20T02:51:02;101928.78;;;6.12;58.81
61119;BME280;51448;51.660;5.824;2023-04-20T02:53:39;101932.28;;;6.14;58.89
61119;BME280;51448;51.660;5.824;2023-04-20T02:56:19;101921.84;;;6.17;59.84
61119;BME280;51448;51.660;5.824;2023-04-20T02:58:53;101920.16;;;6.25;60.04
61119;BME280;51448;51.660;5.824;2023-04-20T03:01:48;101921.09;;;6.32;59.91
61119;BME280;51448;51.660;5.824;2023-04-20T03:04:20;101920.31;;;6.42;60.58
61119;BME280;51448;51.660;5.824;2023-04-20T03:07:10;101912.50;;;6.51;60.66
61119;BME280;51448;51.660;5.824;2023-04-20T03:09:39;101904.72;;;6.59;60.12
61119;BME280;51448;51.660;5.824;2023-04-20T03:12:18;101913.47;;;6.67;60.62
61119;BME280;51448;51.660;5.824;2023-04-20T03:15:03;101910.00;;;6.74;60.42
61119;BME280;51448;51.660;5.824;2023-04-20T03:17:46;101910.94;;;6.81;60.44
61119;BME280;51448;51.660;5.824;2023-04-20T03:20:14;101919.66;;;6.86;60.87
61119;BME280;51448;51.660;5.824;2023-04-20T03:22:42;101907.50;;;6.94;60.76
61119;BME280;51448;51.660;5.824;2023-04-20T03:25:10;101903.16;;;7.01;60.46
61119;BME280;51448;51.660;5.824;2023-04-20T03:27:52;101883.97;;;6.99;60.40
61119;BME280;51448;51.660;5.824;2023-04-20T03:30:21;101890.97;;;7.01;60.58
61119;BME280;51448;51.660;5.824;2023-04-20T03:32:55;101880.50;;;7.06;60.61
61119;BME280;51448;51.660;5.824;2023-04-20T03:35:23;101893.59;;;7.11;60.64
61119;BME280;51448;51.660;5.824;2023-04-20T03:37:52;101889.22;;;7.11;61.02
61119;BME280;51448;51.660;5.824;2023-04-20T03:40:19;101890.13;;;7.13;61.09
61119;BME280;51448;51.660;5.824;2023-04-20T03:42:47;101888.41;;;7.18;61.34
61119;BME280;51448;51.660;5.824;2023-04-20T03:45:15;101885.78;;;7.20;61.34
61119;BME280;51448;51.660;5.824;2023-04-20T03:47:43;101885.78;;;7.21;62.17
61119;BME280;51448;51.660;5.824;2023-04-20T03:50:11;101890.16;;;7.22;61.82
61119;BME280;51448;51.660;5.824;2023-04-20T03:52:39;101886.66;;;7.25;62.14
61119;BME280;51448;51.660;5.824;2023-04-20T03:55:08;101883.19;;;7.24;62.59
61119;BME280;51448;51.660;5.824;2023-04-20T03:57:41;101877.94;;;7.24;62.79
61119;BME280;51448;51.660;5.824;2023-04-20T04:00:09;101878.81;;;7.27;63.50
61119;BME280;51448;51.660;5.824;2023-04-20T04:02:45;101884.03;;;7.25;63.17
61119;BME280;51448;51.660;5.824;2023-04-20T04:05:17;101877.06;;;7.25;63.70
61119;BME280;51448;51.660;5.824;2023-04-20T04:07:48;101865.72;;;7.25;63.71
61119;BME280;51448;51.660;5.824;2023-04-20T04:10:17;101864.88;;;7.24;63.62
61119;BME280;51448;51.660;5.824;2023-04-20T04:13:05;101850.03;;;7.25;64.12
61119;BME280;51448;51.660;5.824;2023-04-20T04:15:53;101854.41;;;7.24;64.26
61119;BME280;51448;51.660;5.824;2023-04-20T04:18:44;101845.66;;;7.25;64.42
61119;BME280;51448;51.660;5.824;2023-04-20T04:21:33;101853.50;;;7.25;64.60
61119;BME280;51448;51.660;5.824;2023-04-20T04:24:23;101843.03;;;7.25;64.69
61119;BME280;51448;51.660;5.824;2023-04-20T04:27:18;101826.47;;;7.25;64.96
61119;BME280;51448;51.660;5.824;2023-04-20T04:30:15;101841.31;;;7.23;65.40
61119;BME280;51448;51.660;5.824;2023-04-20T04:33:03;101833.44;;;7.21;64.98
61119;BME280;51448;51.660;5.824;2023-04-20T04:35:54;101836.09;;;7.20;65.39
61119;BME280;51448;51.660;5.824;2023-04-20T04:38:43;101840.44;;;7.21;66.14
61119;BME280;51448;51.660;5.824;2023-04-20T04:41:32;101829.09;;;7.19;65.88
61119;BME280;51448;51.660;5.824;2023-04-20T04:44:32;101817.75;;;7.18;65.68
61119;BME280;51448;51.660;5.824;2023-04-20T04:47:21;101821.25;;;7.20;65.70
61119;BME280;51448;51.660;5.824;2023-04-20T04:50:11;101825.59;;;7.21;66.10
61119;BME280;51448;51.660;5.824;2023-04-20T04:52:59;101832.59;;;7.22;65.92
61119;BME280;51448;51.660;5.824;2023-04-20T04:55:46;101814.28;;;7.22;66.00
61119;BME280;51448;51.660;5.824;2023-04-20T04:58:34;101825.63;;;7.24;66.72
61119;BME280;51448;51.660;5.824;2023-04-20T05:01:22;101816.91;;;7.24;67.14
61119;BME280;51448;51.660;5.824;2023-04-20T05:04:09;101822.13;;;7.22;66.71
61119;BME280;51448;51.660;5.824;2023-04-20T05:06:57;101827.38;;;7.24;66.95
61119;BME280;51448;51.660;5.824;2023-04-20T05:09:44;101816.88;;;7.25;67.50
61119;BME280;51448;51.660;5.824;2023-04-20T05:12:32;101823.88;;;7.27;67.47
61119;BME280;51448;51.660;5.824;2023-04-20T05:15:20;101820.38;;;7.28;67.33
61119;BME280;51448;51.660;5.824;2023-04-20T05:18:07;101816.00;;;7.30;67.57
61119;BME280;51448;51.660;5.824;2023-04-20T05:20:36;101823.00;;;7.34;67.21
61119;BME280;51448;51.660;5.824;2023-04-20T05:23:03;101819.53;;;7.35;67.27
61119;BME280;51448;51.660;5.824;2023-04-20T05:25:31;101821.25;;;7.36;67.41
61119;BME280;51448;51.660;5.824;2023-04-20T05:27:59;101812.53;;;7.37;67.50
61119;BME280;51448;51.660;5.824;2023-04-20T05:30:27;101817.75;;;7.40;67.63
61119;BME280;51448;51.660;5.824;2023-04-20T05:32:55;101816.03;;;7.42;67.93
61119;BME280;51448;51.660;5.824;2023-04-20T05:35:22;101807.31;;;7.41;67.53
61119;BME280;51448;51.660;5.824;2023-04-20T05:37:50;101806.44;;;7.44;67.54
61119;BME280;51448;51.660;5.824;2023-04-20T05:40:18;101809.03;;;7.50;67.86
61119;BME280;51448;51.660;5.824;2023-04-20T05:42:46;101812.56;;;7.55;68.59
61119;BME280;51448;51.660;5.824;2023-04-20T05:45:14;101806.44;;;7.59;68.37
61119;BME280;51448;51.660;5.824;2023-04-20T05:47:51;101811.66;;;7.62;67.92
61119;BME280;51448;51.660;5.824;2023-04-20T05:50:23;101802.94;;;7.63;68.14
61119;BME280;51448;51.660;5.824;2023-04-20T05:52:53;101798.56;;;7.69;68.15
61119;BME280;51448;51.660;5.824;2023-04-20T05:55:21;101798.56;;;7.75;68.36
61119;BME280;51448;51.660;5.824;2023-04-20T05:57:52;101803.78;;;7.81;68.25
61119;BME280;51448;51.660;5.824;2023-04-20T06:00:20;101802.03;;;7.83;68.55
61119;BME280;51448;51.660;5.824;2023-04-20T06:02:52;101794.19;;;7.83;68.08
61119;BME280;51448;51.660;5.824;2023-04-20T06:05:21;101796.81;;;7.88;68.78
61119;BME280;51448;51.660;5.824;2023-04-20T06:07:49;101807.28;;;7.91;68.84
61119;BME280;51448;51.660;5.824;2023-04-20T06:10:17;101802.06;;;7.94;68.83
61119;BME280;51448;51.660;5.824;2023-04-20T06:12:44;101815.16;;;7.91;68.93
61119;BME280;51448;51.660;5.824;2023-04-20T06:15:12;101805.53;;;7.91;68.79
61119;BME280;51448;51.660;5.824;2023-04-20T06:17:40;101799.44;;;7.92;68.96
61119;BME280;51448;51.660;5.824;2023-04-20T06:20:09;101802.03;;;7.89;68.52
61119;BME280;51448;51.660;5.824;2023-04-20T06:22:42;101798.56;;;7.87;69.07
61119;BME280;51448;51.660;5.824;2023-04-20T06:25:13;101800.31;;;7.86;69.39
61119;BME280;51448;51.660;5.824;2023-04-20T06:27:44;101793.34;;;7.92;69.03
61119;BME280;51448;51.660;5.824;2023-04-20T06:30:13;101795.91;;;7.99;69.37
61119;BME280;51448;51.660;5.824;2023-04-20T06:32:41;101795.06;;;8.00;69.04
61119;BME280;51448;51.660;5.824;2023-04-20T06:35:09;101799.41;;;8.01;69.45
61119;BME280;51448;51.660;5.824;2023-04-20T06:37:37;101794.19;;;8.00;69.42
61119;BME280;51448;51.660;5.824;2023-04-20T06:40:05;101799.44;;;8.00;69.57
61119;BME280;51448;51.660;5.824;2023-04-20T06:42:36;101800.31;;;7.96;69.36
61119;BME280;51448;51.660;5.824;2023-04-20T06:45:05;101805.53;;;7.97;69.62
61119;BME280;51448;51.660;5.824;2023-04-20T06:47:33;101803.78;;;7.96;69.90
61119;BME280;51448;51.660;5.824;2023-04-20T06:50:03;101801.16;;;7.95;69.33
61119;BME280;51448;51.660;5.824;2023-04-20T06:52:36;101786.31;;;7.95;69.62
61119;BME280;51448;51.660;5.824;2023-04-20T06:55:05;101804.69;;;7.94;70.47
61119;BME280;51448;51.660;5.824;2023-04-20T06:57:34;101801.19;;;7.92;70.31
61119;BME280;51448;51.660;5.824;2023-04-20T07:00:01;101792.44;;;7.91;71.10
61119;BME280;51448;51.660;5.824;2023-04-20T07:02:29;101789.84;;;7.88;71.22
61119;BME280;51448;51.660;5.824;2023-04-20T07:05:00;101801.19;;;7.84;71.01
61119;BME280;51448;51.660;5.824;2023-04-20T07:07:28;101792.47;;;7.83;72.00
61119;BME280;51448;51.660;5.824;2023-04-20T07:09:56;101791.56;;;7.83;72.12
61119;BME280;51448;51.660;5.824;2023-04-20T07:12:24;101794.19;;;7.83;71.90
61119;BME280;51448;51.660;5.824;2023-04-20T07:14:52;101789.81;;;7.85;72.22
61119;BME280;51448;51.660;5.824;2023-04-20T07:17:20;101796.81;;;7.98;72.80
61119;BME280;51448;51.660;5.824;2023-04-20T07:19:48;101786.28;;;8.17;72.05
61119;BME280;51448;51.660;5.824;2023-04-20T07:22:17;101783.56;;;8.40;71.70
61119;BME280;51448;51.660;5.824;2023-04-20T07:24:44;101788.78;;;8.57;72.21
61119;BME280;51448;51.660;5.824;2023-04-20T07:27:12;101787.88;;;8.64;71.43
61119;BME280;51448;51.660;5.824;2023-04-20T07:29:40;101784.31;;;8.73;70.83
61119;BME280;51448;51.660;5.824;2023-04-20T07:32:08;101776.44;;;8.79;70.42
61119;BME280;51448;51.660;5.824;2023-04-20T07:34:36;101780.75;;;8.88;70.09
61119;BME280;51448;51.660;5.824;2023-04-20T07:37:03;101784.19;;;8.96;69.72
61119;BME280;51448;51.660;5.824;2023-04-20T07:39:31;101779.84;;;8.95;69.59
61119;BME280;51448;51.660;5.824;2023-04-20T07:42:01;101793.84;;;8.89;69.25
61119;BME280;51448;51.660;5.824;2023-04-20T07:44:30;101787.78;;;8.79;70.19
61119;BME280;51448;51.660;5.824;2023-04-20T07:46:57;101779.06;;;8.77;69.26
61119;BME280;51448;51.660;5.824;2023-04-20T07:49:25;101786.91;;;8.79;70.09
61119;BME280;51448;51.660;5.824;2023-04-20T07:51:53;101784.25;;;8.85;69.99
61119;BME280;51448;51.660;5.824;2023-04-20T07:54:32;101787.75;;;8.90;69.80
61119;BME280;51448;51.660;5.824;2023-04-20T07:57:00;101791.19;;;8.94;70.54
61119;BME280;51448;51.660;5.824;2023-04-20T07:59:29;101780.75;;;8.92;70.42
61119;BME280;51448;51.660;5.824;2023-04-20T08:01:58;101800.00;;;8.88;70.78
61119;BME280;51448;51.660;5.824;2023-04-20T08:04:28;101793.91;;;8.83;70.09
61119;BME280;51448;51.660;5.824;2023-04-20T08:06:56;101795.66;;;8.81;70.92
61119;BME280;51448;51.660;5.824;2023-04-20T08:09:24;101797.38;;;8.88;70.10
61119;BME280;51448;51.660;5.824;2023-04-20T08:11:53;101788.59;;;8.91;70.33
61119;BME280;51448;51.660;5.824;2023-04-20T08:14:20;101781.59;;;8.93;70.04
61119;BME280;51448;51.660;5.824;2023-04-20T08:16:48;101785.88;;;9.09;70.51
61119;BME280;51448;51.660;5.824;2023-04-20T08:19:16;101786.66;;;9.23;69.19
61119;BME280;51448;51.660;5.824;2023-04-20T08:21:47;101777.88;;;9.24;69.36
61119;BME280;51448;51.660;5.824;2023-04-20T08:24:15;101778.78;;;9.23;69.41
61119;BME280;51448;51.660;5.824;2023-04-20T08:26:43;101774.44;;;9.18;69.37
61119;BME280;51448;51.660;5.824;2023-04-20T08:29:12;101770.97;;;9.13;69.28
61119;BME280;51448;51.660;5.824;2023-04-20T08:31:39;101763.13;;;9.08;69.92
61119;BME280;51448;51.660;5.824;2023-04-20T08:34:07;101771.84;;;9.10;70.20
61119;BME280;51448;51.660;5.824;2023-04-20T08:36:35;101772.75;;;9.11;69.50
61119;BME280;51448;51.660;5.824;2023-04-20T08:39:08;101770.09;;;9.12;70.16
61119;BME280;51448;51.660;5.824;2023-04-20T08:41:38;101766.63;;;9.09;70.72
61119;BME280;51448;51.660;5.824;2023-04-20T08:44:06;101767.47;;;9.12;70.45
61119;BME280;51448;51.660;5.824;2023-04-20T08:46:34;101771.03;;;9.05;69.79
61119;BME280;51448;51.660;5.824;2023-04-20T08:49:05;101770.16;;;9.00;70.51
61119;BME280;51448;51.660;5.824;2023-04-20T08:51:42;101757.91;;;9.02;70.62
61119;BME280;51448;51.660;5.824;2023-04-20T08:54:11;101766.66;;;9.04;71.48
61119;BME280;51448;51.660;5.824;2023-04-20T08:56:42;101764.00;;;9.09;70.71
61119;BME280;51448;51.660;5.824;2023-04-20T08:59:12;101757.00;;;9.09;70.50
61119;BME280;51448;51.660;5.824;2023-04-20T09:01:41;101770.09;;;9.12;70.82
61119;BME280;51448;51.660;5.824;2023-04-20T09:04:25;101761.31;;;9.16;71.48
61119;BME280;51448;51.660;5.824;2023-04-20T09:06:55;101758.63;;;9.24;71.82
61119;BME280;51448;51.660;5.824;2023-04-20T09:09:23;101755.97;;;9.30;71.65
61119;BME280;51448;51.660;5.824;2023-04-20T09:12:07;101747.19;;;9.33;70.57
61119;BME280;51448;51.660;5.824;2023-04-20T09:14:43;101753.34;;;9.29;70.58
61119;BME280;51448;51.660;5.824;2023-04-20T09:17:15;101748.13;;;9.22;70.57
61119;BME280;51448;51.660;5.824;2023-04-20T09:19:57;101750.81;;;9.19;70.86
61119;BME280;51448;51.660;5.824;2023-04-20T09:22:32;101750.81;;;9.18;71.13
61119;BME280;51448;51.660;5.824;2023-04-20T09:25:15;101743.84;;;9.15;71.12
61119;BME280;51448;51.660;5.824;2023-04-20T09:27:55;101756.09;;;9.15;71.76
61119;BME280;51448;51.660;5.824;2023-04-20T09:30:24;101750.00;;;9.10;72.13
61119;BME280;51448;51.660;5.824;2023-04-20T09:33:03;101750.91;;;9.07;72.57
61119;BME280;51448;51.660;5.824;2023-04-20T09:35:31;101748.25;;;9.09;72.20
61119;BME280;51448;51.660;5.824;2023-04-20T09:37:59;101737.72;;;9.13;72.31
61119;BME280;51448;51.660;5.824;2023-04-20T09:40:27;101741.22;;;9.15;71.95
61119;BME280;51448;51.660;5.824;2023-04-20T09:42:57;101744.69;;;9.16;72.07
61119;BME280;51448;51.660;5.824;2023-04-20T09:45:31;101747.38;;;9.10;71.59
61119;BME280;51448;51.660;5.824;2023-04-20T09:48:03;101733.44;;;9.00;71.51
61119;BME280;51448;51.660;5.824;2023-04-20T09:50:37;101741.38;;;8.91;71.88
61119;BME280;51448;51.660;5.824;2023-04-20T09:53:16;101731.84;;;8.80;72.84
61119;BME280;51448;51.660;5.824;2023-04-20T09:55:45;101730.97;;;8.80;72.77
61119;BME280;51448;51.660;5.824;2023-04-20T09:58:17;101730.91;;;8.88;72.40
61119;BME280;51448;51.660;5.824;2023-04-20T10:00:46;101732.56;;;9.01;72.38
61119;BME280;51448;51.660;5.824;2023-04-20T10:03:16;101723.69;;;9.16;72.13
61119;BME280;51448;51.660;5.824;2023-04-20T10:05:48;101719.19;;;9.32;71.35
61119;BME280;51448;51.660;5.824;2023-04-20T10:08:19;101731.31;;;9.45;71.32
61119;BME280;51448;51.660;5.824;2023-04-20T10:10:49;101717.25;;;9.52;71.04
61119;BME280;51448;51.660;5.824;2023-04-20T10:13:17;101718.19;;;9.48;70.84
61119;BME280;51448;51.660;5.824;2023-04-20T10:15:46;101713.84;;;9.45;71.37
61119;BME280;51448;51.660;5.824;2023-04-20T10:20:50;101719.94;;;9.46;70.81
61119;BME280;51448;51.660;5.824;2023-04-20T10:23:18;101714.66;;;9.51;71.21
61119;BME280;51448;51.660;5.824;2023-04-20T10:25:57;101709.28;;;9.61;69.75
61119;BME280;51448;51.660;5.824;2023-04-20T10:28:40;101708.16;;;9.87;70.55
61119;BME280;51448;51.660;5.824;2023-04-20T10:31:12;101711.41;;;10.07;70.21
61119;BME280;51448;51.660;5.824;2023-04-20T10:36:31;101701.59;;;10.23;69.29
61119;BME280;51448;51.660;5.824;2023-04-20T10:41:54;101676.53;;;10.61;67.90
61119;BME280;51448;51.660;5.824;2023-04-20T10:44:25;101679.13;;;10.64;68.10
61119;BME280;51448;51.660;5.824;2023-04-20T10:46:54;101684.25;;;10.72;67.43
61119;BME280;51448;51.660;5.824;2023-04-20T10:49:26;101685.19;;;10.70;66.73
61119;BME280;51448;51.660;5.824;2023-04-20T10:51:56;101693.28;;;10.56;65.55
61119;BME280;51448;51.660;5.824;2023-04-20T10:54:24;101683.91;;;10.36;65.74
61119;BME280;51448;51.660;5.824;2023-04-20T10:56:52;101688.44;;;10.23;65.93
61119;BME280;51448;51.660;5.824;2023-04-20T10:59:22;101682.28;;;10.23;66.16
61119;BME280;51448;51.660;5.824;2023-04-20T11:01:51;101673.53;;;10.25;66.60
61119;BME280;51448;51.660;5.824;2023-04-20T11:04:30;101669.00;;;10.35;66.47
61119;BME280;51448;51.660;5.824;2023-04-20T11:07:06;101656.75;;;10.36;65.67
61119;BME280;51448;51.660;5.824;2023-04-20T11:09:36;101660.31;;;10.27;66.24
61119;BME280;51448;51.660;5.824;2023-04-20T11:12:09;101668.28;;;10.21;66.36
61119;BME280;51448;51.660;5.824;2023-04-20T11:14:55;101670.06;;;10.22;66.30
61119;BME280;51448;51.660;5.824;2023-04-20T11:17:33;101665.72;;;10.18;66.51
61119;BME280;51448;51.660;5.824;2023-04-20T11:20:06;101655.31;;;10.08;66.53
61119;BME280;51448;51.660;5.824;2023-04-20T11:22:39;101659.78;;;10.03;67.17
61119;BME280;51448;51.660;5.824;2023-04-20T11:25:09;101660.66;;;10.02;66.70
61119;BME280;51448;51.660;5.824;2023-04-20T11:27:41;101654.59;;;9.96;66.91
61119;BME280;51448;51.660;5.824;2023-04-20T11:30:09;101649.41;;;9.93;67.30
61119;BME280;51448;51.660;5.824;2023-04-20T11:32:37;101651.25;;;9.84;68.51
61119;BME280;51448;51.660;5.824;2023-04-20T11:35:08;101649.56;;;9.80;70.80
61119;BME280;51448;51.660;5.824;2023-04-20T11:37:49;101641.88;;;9.62;70.35
61119;BME280;51448;51.660;5.824;2023-04-20T11:40:18;101642.94;;;9.44;71.52
61119;BME280;51448;51.660;5.824;2023-04-20T11:42:46;101642.22;;;9.30;71.74
61119;BME280;51448;51.660;5.824;2023-04-20T11:45:14;101644.97;;;9.17;73.03
61119;BME280;51448;51.660;5.824;2023-04-20T11:47:42;101642.41;;;9.08;72.58
61119;BME280;51448;51.660;5.824;2023-04-20T11:50:12;101645.97;;;8.99;73.46
61119;BME280;51448;51.660;5.824;2023-04-20T11:52:40;101649.47;;;9.00;74.28
61119;BME280;51448;51.660;5.824;2023-04-20T11:55:08;101664.34;;;8.99;74.89
61119;BME280;51448;51.660;5.824;2023-04-20T11:57:37;101648.63;;;8.98;76.93
61119;BME280;51448;51.660;5.824;2023-04-20T12:00:06;101653.03;;;8.91;77.63
61119;BME280;51448;51.660;5.824;2023-04-20T12:02:39;101637.41;;;8.80;79.48
61119;BME280;51448;51.660;5.824;2023-04-20T12:05:08;101641.78;;;8.78;80.81
61119;BME280;51448;51.660;5.824;2023-04-20T12:07:36;101623.38;;;8.86;81.62
61119;BME280;51448;51.660;5.824;2023-04-20T12:10:06;101631.00;;;9.12;82.71
61119;BME280;51448;51.660;5.824;2023-04-20T12:12:34;101630.69;;;9.43;81.60
61119;BME280;51448;51.660;5.824;2023-04-20T12:15:03;101632.16;;;9.70;82.61
61119;BME280;51448;51.660;5.824;2023-04-20T12:17:31;101630.03;;;10.01;80.97
61119;BME280;51448;51.660;5.824;2023-04-20T12:19:59;101620.78;;;10.38;81.14
61119;BME280;51448;51.660;5.824;2023-04-20T12:22:27;101612.38;;;10.70;79.04
61119;BME280;51448;51.660;5.824;2023-04-20T12:24:55;101616.66;;;10.79;76.85
61119;BME280;51448;51.660;5.824;2023-04-20T12:27:22;101609.66;;;10.76;76.58
61119;BME280;51448;51.660;5.824;2023-04-20T12:29:52;101620.19;;;10.76;77.10
61119;BME280;51448;51.660;5.824;2023-04-20T12:32:19;101612.28;;;10.76;76.62
61119;BME280;51448;51.660;5.824;2023-04-20T12:34:47;101609.69;;;10.75;76.05
61119;BME280;51448;51.660;5.824;2023-04-20T12:37:15;101609.72;;;10.73;74.97
61119;BME280;51448;51.660;5.824;2023-04-20T12:39:43;101621.84;;;10.82;72.51
61119;BME280;51448;51.660;5.824;2023-04-20T12:42:11;101605.53;;;11.13;72.50
61119;BME280;51448;51.660;5.824;2023-04-20T12:44:38;101591.56;;;11.54;71.38
61119;BME280;51448;51.660;5.824;2023-04-20T12:47:06;101603.72;;;11.61;69.77
61119;BME280;51448;51.660;5.824;2023-04-20T12:49:34;101608.25;;;11.55;67.80
61119;BME280;51448;51.660;5.824;2023-04-20T12:52:02;101614.78;;;11.34;67.78
61119;BME280;51448;51.660;5.824;2023-04-20T12:54:31;101615.97;;;11.17;68.08
61119;BME280;51448;51.660;5.824;2023-04-20T12:56:59;101616.16;;;11.06;68.65
61119;BME280;51448;51.660;5.824;2023-04-20T12:59:27;101619.75;;;11.01;68.62
61119;BME280;51448;51.660;5.824;2023-04-20T13:01:55;101606.38;;;11.15;68.87
61119;BME280;51448;51.660;5.824;2023-04-20T13:04:22;101598.72;;;11.49;67.66
61119;BME280;51448;51.660;5.824;2023-04-20T13:06:51;101608.78;;;11.72;64.02
61119;BME280;51448;51.660;5.824;2023-04-20T13:09:18;101595.19;;;11.94;62.66
61119;BME280;51448;51.660;5.824;2023-04-20T13:11:47;101606.34;;;12.06;62.43
61119;BME280;51448;51.660;5.824;2023-04-20T13:14:14;101604.56;;;12.07;62.81
61119;BME280;51448;51.660;5.824;2023-04-20T13:16:43;101596.72;;;12.04;62.30
61119;BME280;51448;51.660;5.824;2023-04-20T13:19:11;101594.34;;;11.92;61.60
61119;BME280;51448;51.660;5.824;2023-04-20T13:21:39;101606.03;;;11.77;61.79
61119;BME280;51448;51.660;5.824;2023-04-20T13:24:07;101598.25;;;11.71;62.58
61119;BME280;51448;51.660;5.824;2023-04-20T13:26:35;101591.19;;;11.73;63.08